Johnson City, TN (37601)

11:59 AM EDT on August 04, 2015 (GMT -0400)
Towne Acres | | Change Station
CLOSE
Current Station
Personal Weather Station
Location: Johnson City, TN
Elevation: 1650 ft
Nearby Weather Stations

Elev 1650 ft 36.34 °N, 82.39 °W | Updated 20 seconds ago

Clear
Clear
84.7 °F
Feels Like 87 °F
N
0.0
Wind Variable Wind from ESE
Gusts 0.0 mph

Today
High -- | Low -- °F
--% Chance of Precip.
Yesterday
High -- | Low -- °F
Precip. -- in
6:38 AM 8:32 PM
Waning Gibbous, 76% visible
Pressure 30.00 in
Visibility 10.0 miles
Clouds Mostly Cloudy 25000 ft
Heat Index 87 °F
Dew Point 66 °F
Humidity 53%
Rainfall 0.00 in
Snow Depth Not available.
UV 6.0 out of 12
Pollen 5.40 out of 12
Air Quality Not available.
Flu Activity Not available.
METAR KTRI 041553Z VRB04KT 10SM BKN250 29/18 A3008 RMK AO2 SLP159 T02890183

More Conditions Fewer Conditions

Pressure 30.00 in
Visibility 10.0 miles
Clouds Mostly Cloudy 25000 ft
Heat Index 87 °F
Dew Point 66 °F
Humidity 53%
Rainfall 0.00 in
Snow Depth Not available.
UV 6.0 out of 12
Pollen 5.40 out of 12
Air Quality Not available.
Flu Activity Not available.
METAR KTRI 041553Z VRB04KT 10SM BKN250 29/18 A3008 RMK AO2 SLP159 T02890183

More Conditions Fewer Conditions

10-Day Weather Forecast

×

Almanac

Astronomy

Aug. 04, 2015 Rise Set
Actual Time
Civil Twilight
Nautical Twilight
Astronomical Twilight
Moon
Length of Visible Light
Length of Day
Tomorrow will be .
, % of the Moon is Illuminated

Today's Extremes

State Highs State Lows

Community

WunderPhotos

Upload Photos

1,843,909 photos uploaded!

WunderBlogs® & News

Nearby

Air Quality

  Air Quality AQ Index Pollutant
Not available.

Snow Depth

Station Depth Elevation

Earthquake Activity

City Distance Mag. Time & Date
Minimum magnitude displayed is 2.5.

Coastal Water Temperatures

Place Temperature

Stations

Nearby Weather Stations

Station Location Temp. Windchill Dew Point Humidity Wind Precip. Elev Updated Type